| time (UTC) | temp F | wind direction | speed knots | gust knots | rain 1hr in | rain 24hr in | rain mn in | humidity % | barometer mb |
| 20260510214102 | 55 | 30 | 9.6 | 10.4 | 0.00 | 0.00 | 0.00 | 40 | 1023.0 |
| 20260510213559 | 55 | 332 | 3.5 | 4.3 | 0.00 | 0.00 | 0.00 | 41 | 1023.1 |
| 20260510213055 | 55 | 130 | 3.5 | 5.2 | 0.00 | 0.00 | 0.00 | 40 | 1023.1 |
| 20260510212552 | 56 | 313 | 10.4 | 13.0 | 0.00 | 0.00 | 0.00 | 40 | 1023.0 |
| 20260510212049 | 56 | 213 | 6.1 | 7.8 | 0.00 | 0.00 | 0.00 | 41 | 1023.0 |
| 20260510211541 | 56 | 174 | 0.9 | 2.6 | 0.00 | 0.00 | 0.00 | 40 | 1023.0 |
| 20260510211040 | 55 | 257 | 6.1 | 7.0 | 0.00 | 0.00 | 0.00 | 41 | 1023.1 |
| 20260510210537 | 54 | 276 | 9.6 | 10.4 | 0.00 | 0.00 | 0.00 | 41 | 1023.0 |
| 20260510210033 | 55 | 42 | 3.5 | 5.2 | 0.00 | 0.00 | 0.00 | 43 | 1023.1 |
| 20260510205532 | 56 | 259 | 7.0 | 9.6 | 0.00 | 0.00 | 0.00 | 39 | 1023.0 |
| 20260510205028 | 55 | 281 | 7.0 | 10.4 | 0.00 | 0.00 | 0.00 | 41 | 1022.9 |
| 20260510204525 | 55 | 8 | 7.8 | 13.0 | 0.00 | 0.00 | 0.00 | 40 | 1022.9 |
| 20260510204021 | 56 | 9 | 1.7 | 4.3 | 0.00 | 0.00 | 0.00 | 42 | 1023.0 |
| 20260510203518 | 55 | 224 | 2.6 | 4.3 | 0.00 | 0.00 | 0.00 | 42 | 1022.9 |
| 20260510203014 | 55 | 331 | 7.0 | 7.8 | 0.00 | 0.00 | 0.00 | 45 | 1023.0 |
| 20260510202508 | 55 | 4 | 3.5 | 5.2 | 0.00 | 0.00 | 0.00 | 43 | 1023.0 |
| 20260510202005 | 55 | 328 | 4.3 | 7.0 | 0.00 | 0.00 | 0.00 | 42 | 1023.2 |
| 20260510201502 | 55 | 282 | 9.6 | 13.0 | 0.00 | 0.00 | 0.00 | 42 | 1023.0 |
| 20260510200958 | 54 | 259 | 10.4 | 13.0 | 0.00 | 0.00 | 0.00 | 43 | 1023.0 |
| 20260510200454 | 55 | 297 | 6.1 | 7.0 | 0.00 | 0.00 | 0.00 | 43 | 1023.2 |
| 20260510195952 | 53 | 324 | 2.6 | 2.6 | 0.00 | 0.00 | 0.00 | 43 | 1022.9 |
| 20260510195450 | 55 | 340 | 7.0 | 10.4 | 0.00 | 0.00 | 0.00 | 43 | 1023.2 |
| 20260510194945 | 55 | 1 | 3.5 | 5.2 | 0.00 | 0.00 | 0.00 | 44 | 1023.2 |
| 20260510194441 | 55 | 58 | 3.5 | 4.3 | 0.00 | 0.00 | 0.00 | 43 | 1023.0 |
| 20260510193937 | 54 | 50 | 1.7 | 2.6 | 0.00 | 0.00 | 0.00 | 43 | 1023.1 |
| 20260510193432 | 53 | 259 | 7.0 | 7.8 | 0.00 | 0.00 | 0.00 | 45 | 1023.2 |
| 20260510192928 | 53 | 46 | 4.3 | 7.0 | 0.00 | 0.00 | 0.00 | 46 | 1023.2 |
| 20260510192423 | 53 | 278 | 4.3 | 5.2 | 0.00 | 0.00 | 0.00 | 47 | 1023.5 |
| 20260510191919 | 54 | 116 | 4.3 | 7.8 | 0.00 | 0.00 | 0.00 | 45 | 1023.1 |
| 20260510191415 | 53 | 18 | 6.1 | 7.0 | 0.00 | 0.00 | 0.00 | 43 | 1023.2 |
| 20260510190913 | 53 | 272 | 7.8 | 9.6 | 0.00 | 0.00 | 0.00 | 44 | 1023.2 |
| 20260510190410 | 53 | 325 | 7.8 | 10.4 | 0.00 | 0.00 | 0.00 | 45 | 1023.3 |
| 20260510185906 | 53 | 21 | 9.6 | 12.2 | 0.00 | 0.00 | 0.00 | 44 | 1023.3 |
| 20260510185404 | 53 | 61 | 3.5 | 4.3 | 0.00 | 0.00 | 0.00 | 45 | 1023.1 |
| 20260510184901 | 53 | 208 | 8.7 | 10.4 | 0.00 | 0.00 | 0.00 | 45 | 1023.3 |
| 20260510184358 | 52 | 50 | 4.3 | 5.2 | 0.00 | 0.00 | 0.00 | 45 | 1023.3 |
| 20260510183857 | 52 | 312 | 9.6 | 12.2 | 0.00 | 0.00 | 0.00 | 44 | 1023.1 |
| 20260510183355 | 52 | 266 | 7.8 | 10.4 | 0.00 | 0.00 | 0.00 | 45 | 1023.2 |
| 20260510182849 | 53 | 5 | 7.0 | 13.0 | 0.00 | 0.00 | 0.00 | 45 | 1023.2 |
| 20260510182346 | 51 | 67 | 1.7 | 2.6 | 0.00 | 0.00 | 0.00 | 44 | 1023.3 |
| 20260510181842 | 51 | 31 | 4.3 | 7.8 | 0.00 | 0.00 | 0.00 | 46 | 1023.1 |
| 20260510181340 | 52 | 288 | 9.6 | 12.2 | 0.00 | 0.00 | 0.00 | 43 | 1023.1 |
| 20260510180836 | 51 | 292 | 13.9 | 17.4 | 0.00 | 0.00 | 0.00 | 45 | 1023.3 |
| 20260510180333 | 52 | 221 | 10.4 | 12.2 | 0.00 | 0.00 | 0.00 | 45 | 1023.1 |
| 20260510175830 | 52 | 31 | 5.2 | 7.0 | 0.00 | 0.00 | 0.00 | 45 | 1023.2 |
| 20260510175326 | 52 | 280 | 14.8 | 21.7 | 0.00 | 0.00 | 0.00 | 44 | 1023.0 |
| 20260510174822 | 52 | 293 | 8.7 | 13.0 | 0.00 | 0.00 | 0.00 | 45 | 1023.0 |
| 20260510174320 | 51 | 349 | 8.7 | 9.6 | 0.00 | 0.00 | 0.00 | 46 | 1023.0 |
| 20260510173816 | 51 | 303 | 12.2 | 16.5 | 0.00 | 0.00 | 0.00 | 45 | 1022.9 |
| 20260510173312 | 51 | 338 | 7.8 | 10.4 | 0.00 | 0.00 | 0.00 | 45 | 1022.9 |
| 20260510172808 | 51 | 262 | 13.0 | 21.7 | 0.00 | 0.00 | 0.00 | 44 | 1022.9 |
| 20260510172306 | 51 | 317 | 9.6 | 16.5 | 0.00 | 0.00 | 0.00 | 46 | 1022.9 |
| 20260510171801 | 50 | 251 | 4.3 | 7.0 | 0.00 | 0.00 | 0.00 | 48 | 1023.0 |
| 20260510171258 | 51 | 26 | 6.1 | 7.8 | 0.00 | 0.00 | 0.00 | 45 | 1022.9 |
| 20260510170755 | 51 | 351 | 7.8 | 13.0 | 0.00 | 0.00 | 0.00 | 46 | 1022.9 |
| 20260510170251 | 51 | 8 | 11.3 | 17.4 | 0.00 | 0.00 | 0.00 | 45 | 1022.9 |
| 20260510165746 | 51 | 285 | 11.3 | 17.4 | 0.00 | 0.00 | 0.00 | 45 | 1022.8 |
| 20260510165243 | 50 | 165 | 3.5 | 4.3 | 0.00 | 0.00 | 0.00 | 47 | 1022.9 |
| 20260510164740 | 50 | 39 | 7.0 | 12.2 | 0.00 | 0.00 | 0.00 | 46 | 1022.9 |
| 20260510164237 | 50 | 321 | 12.2 | 17.4 | 0.00 | 0.00 | 0.00 | 46 | 1023.0 |
| 20260510163732 | 50 | 326 | 15.6 | 20.0 | 0.00 | 0.00 | 0.00 | 45 | 1023.2 |
| 20260510163228 | 52 | 330 | 9.6 | 12.2 | 0.00 | 0.00 | 0.00 | 45 | 1022.9 |
| 20260510162727 | 50 | 274 | 3.5 | 4.3 | 0.00 | 0.00 | 0.00 | 46 | 1022.7 |
| 20260510162225 | 50 | 97 | 6.1 | 9.6 | 0.00 | 0.00 | 0.00 | 46 | 1023.0 |
| 20260510161721 | 51 | 269 | 11.3 | 13.0 | 0.00 | 0.00 | 0.00 | 44 | 1022.9 |
| 20260510161217 | 51 | 350 | 13.9 | 17.4 | 0.00 | 0.00 | 0.00 | 46 | 1022.7 |
| 20260510160715 | 51 | 292 | 10.4 | 14.8 | 0.00 | 0.00 | 0.00 | 45 | 1022.6 |
| 20260510160210 | 50 | 274 | 9.6 | 10.4 | 0.00 | 0.00 | 0.00 | 47 | 1022.5 |
| 20260510155706 | 50 | 331 | 8.7 | 13.0 | 0.00 | 0.00 | 0.00 | 48 | 1022.6 |
| 20260510155202 | 50 | 270 | 7.8 | 14.8 | 0.00 | 0.00 | 0.00 | 46 | 1022.7 |
| 20260510154657 | 50 | 17 | 10.4 | 13.0 | 0.00 | 0.00 | 0.00 | 47 | 1022.6 |
| 20260510154153 | 50 | 327 | 6.1 | 7.0 | 0.00 | 0.00 | 0.00 | 46 | 1022.5 |
| 20260510153648 | 49 | 270 | 9.6 | 13.0 | 0.00 | 0.00 | 0.00 | 47 | 1022.5 |
| 20260510153146 | 50 | 282 | 18.2 | 26.9 | 0.00 | 0.00 | 0.00 | 46 | 1022.5 |
| 20260510152642 | 50 | 288 | 10.4 | 17.4 | 0.00 | 0.00 | 0.00 | 46 | 1022.6 |
| 20260510152138 | 50 | 27 | 7.0 | 9.6 | 0.00 | 0.00 | 0.00 | 46 | 1022.3 |
| 20260510151635 | 49 | 16 | 9.6 | 13.0 | 0.00 | 0.00 | 0.00 | 47 | 1022.5 |
| 20260510151133 | 49 | 279 | 6.1 | 7.0 | 0.00 | 0.00 | 0.00 | 49 | 1022.5 |
| 20260510150628 | 50 | 236 | 10.4 | 12.2 | 0.00 | 0.00 | 0.00 | 48 | 1022.5 |
| 20260510150124 | 49 | 238 | 10.4 | 13.0 | 0.00 | 0.00 | 0.00 | 48 | 1022.3 |
| 20260510145620 | 49 | 43 | 5.2 | 7.0 | 0.00 | 0.00 | 0.00 | 49 | 1022.1 |
| 20260510145117 | 48 | 269 | 8.7 | 12.2 | 0.00 | 0.00 | 0.00 | 49 | 1022.2 |
| 20260510144613 | 49 | 253 | 16.5 | 22.6 | 0.00 | 0.00 | 0.00 | 49 | 1022.5 |
| 20260510144109 | 49 | 315 | 12.2 | 17.4 | 0.00 | 0.00 | 0.00 | 50 | 1022.4 |
| 20260510143605 | 48 | 320 | 10.4 | 13.0 | 0.00 | 0.00 | 0.00 | 51 | 1022.2 |
| 20260510143101 | 49 | 340 | 14.8 | 22.6 | 0.00 | 0.00 | 0.00 | 51 | 1022.2 |
| 20260510142558 | 49 | 355 | 9.6 | 12.2 | 0.00 | 0.00 | 0.00 | 53 | 1022.1 |
| 20260510142055 | 48 | 304 | 12.2 | 14.8 | 0.00 | 0.00 | 0.00 | 55 | 1022.1 |
| 20260510141552 | 48 | 262 | 7.8 | 10.4 | 0.00 | 0.00 | 0.00 | 56 | 1022.2 |
| 20260510141050 | 48 | 348 | 10.4 | 16.5 | 0.00 | 0.00 | 0.00 | 56 | 1022.2 |
| 20260510140546 | 47 | 337 | 6.1 | 7.8 | 0.00 | 0.00 | 0.00 | 57 | 1022.2 |
| 20260510140045 | 46 | 301 | 8.7 | 10.4 | 0.00 | 0.00 | 0.00 | 59 | 1021.9 |
| 20260510135541 | 47 | 306 | 6.1 | 7.8 | 0.00 | 0.00 | 0.00 | 60 | 1022.2 |
| 20260510135038 | 47 | 26 | 6.1 | 9.6 | 0.00 | 0.00 | 0.00 | 61 | 1022.1 |
| 20260510134535 | 46 | 344 | 9.6 | 10.4 | 0.00 | 0.00 | 0.00 | 61 | 1022.3 |
| 20260510134031 | 46 | 45 | 7.8 | 10.4 | 0.00 | 0.00 | 0.00 | 63 | 1022.1 |
| 20260510133527 | 45 | 5 | 7.8 | 10.4 | 0.00 | 0.00 | 0.00 | 65 | 1022.3 |
| 20260510133024 | 46 | 224 | 3.5 | 5.2 | 0.00 | 0.00 | 0.00 | 67 | 1022.0 |
| 20260510132521 | 45 | 324 | 10.4 | 17.4 | 0.00 | 0.00 | 0.00 | 68 | 1022.1 |
| 20260510132017 | 45 | 27 | 2.6 | 4.3 | 0.00 | 0.00 | 0.00 | 71 | 1022.0 |
| 20260510131515 | 45 | 68 | 4.3 | 7.0 | 0.00 | 0.00 | 0.00 | 71 | 1022.1 |
| 20260510131012 | 44 | 11 | 4.3 | 7.0 | 0.00 | 0.00 | 0.00 | 73 | 1021.8 |
| 20260510130508 | 44 | 320 | 6.1 | 7.0 | 0.00 | 0.00 | 0.00 | 73 | 1021.9 |
| 20260510130006 | 44 | 25 | 5.2 | 7.0 | 0.00 | 0.00 | 0.00 | 74 | 1021.7 |
| 20260510125502 | 44 | 352 | 3.5 | 5.2 | 0.00 | 0.00 | 0.00 | 74 | 1021.9 |
| 20260510124959 | 44 | 1 | 3.5 | 4.3 | 0.00 | 0.00 | 0.00 | 73 | 1021.7 |
| 20260510124455 | 44 | 54 | 2.6 | 2.6 | 0.00 | 0.00 | 0.00 | 74 | 1021.8 |
| 20260510123952 | 44 | 359 | 6.1 | 7.8 | 0.00 | 0.00 | 0.00 | 74 | 1021.8 |
| 20260510123447 | 44 | 98 | 5.2 | 9.6 | 0.00 | 0.00 | 0.00 | 75 | 1021.7 |
| 20260510122943 | 43 | 78 | 2.6 | 4.3 | 0.00 | 0.00 | 0.00 | 75 | 1021.5 |
| 20260510122439 | 43 | 208 | 2.6 | 2.6 | 0.00 | 0.00 | 0.00 | 75 | 1021.4 |
| 20260510121935 | 43 | 151 | 1.7 | 1.7 | 0.00 | 0.00 | 0.00 | 75 | 1021.7 |
| 20260510121433 | 43 | 120 | 1.7 | 2.6 | 0.00 | 0.00 | 0.00 | 75 | 1021.1 |
| 20260510120930 | 42 | 106 | 0.9 | 1.7 | 0.00 | 0.00 | 0.00 | 76 | 1021.1 |
| 20260510120427 | 42 | 155 | 1.7 | 2.6 | 0.00 | 0.00 | 0.00 | 76 | 1021.2 |
| 20260510115923 | 42 | 252 | 3.5 | 4.3 | 0.00 | 0.00 | 0.00 | 77 | 1021.3 |
| 20260510115421 | 42 | 125 | 0.9 | 1.7 | 0.00 | 0.00 | 0.00 | 78 | 1021.3 |
| 20260510114916 | 42 | 137 | 1.7 | 1.7 | 0.00 | 0.00 | 0.00 | 78 | 1021.1 |
| 20260510114413 | 42 | 129 | 0.9 | 1.7 | 0.00 | 0.00 | 0.00 | 77 | 1021.3 |
| 20260510113908 | 42 | 134 | 1.7 | 1.7 | 0.00 | 0.00 | 0.00 | 76 | 1021.1 |
| 20260510113404 | 42 | 270 | 2.6 | 2.6 | 0.00 | 0.00 | 0.00 | 75 | 1021.1 |
| 20260510112902 | 42 | 115 | 0.0 | 0.0 | 0.00 | 0.00 | 0.00 | 77 | 1020.9 |
| 20260510112359 | 42 | 105 | 0.0 | 0.0 | 0.00 | 0.00 | 0.00 | 77 | 1020.8 |
| 20260510111855 | 42 | 109 | 0.0 | 0.0 | 0.00 | 0.00 | 0.00 | 77 | 1020.7 |
| 20260510111351 | 41 | 109 | 0.0 | 0.0 | 0.00 | 0.00 | 0.00 | 77 | 1020.8 |
| 20260510110846 | 41 | 113 | 0.0 | 0.0 | 0.00 | 0.00 | 0.00 | 77 | 1020.6 |
| 20260510110343 | 41 | 121 | 0.9 | 1.7 | 0.00 | 0.00 | 0.00 | 76 | 1020.8 |
| 20260510105840 | 41 | 120 | 0.9 | 1.7 | 0.00 | 0.00 | 0.00 | 76 | 1020.5 |
| 20260510105339 | 41 | 140 | 1.7 | 2.6 | 0.00 | 0.00 | 0.00 | 78 | 1020.6 |
| 20260510104835 | 41 | 142 | 1.7 | 1.7 | 0.00 | 0.00 | 0.00 | 78 | 1020.5 |
| 20260510104333 | 41 | 175 | 1.7 | 2.6 | 0.00 | 0.00 | 0.00 | 79 | 1020.4 |
| 20260510103829 | 40 | 131 | 0.9 | 1.7 | 0.00 | 0.00 | 0.00 | 79 | 1020.3 |
| 20260510103326 | 40 | 121 | 0.9 | 1.7 | 0.00 | 0.00 | 0.00 | 79 | 1020.3 |
| 20260510102821 | 41 | 123 | 0.9 | 1.7 | 0.00 | 0.00 | 0.00 | 78 | 1020.2 |
| 20260510102317 | 41 | 150 | 1.7 | 2.6 | 0.00 | 0.00 | 0.00 | 77 | 1020.1 |
| 20260510101815 | 41 | 143 | 1.7 | 2.6 | 0.00 | 0.00 | 0.00 | 76 | 1020.2 |
| 20260510101313 | 41 | 135 | 1.7 | 1.7 | 0.00 | 0.00 | 0.00 | 75 | 1019.9 |
| 20260510100809 | 41 | 10 | 1.7 | 2.6 | 0.00 | 0.00 | 0.00 | 76 | 1019.9 |
| 20260510100307 | 41 | 139 | 1.7 | 1.7 | 0.00 | 0.00 | 0.00 | 75 | 1019.9 |
| 20260510095802 | 41 | 153 | 1.7 | 1.7 | 0.00 | 0.00 | 0.00 | 75 | 1019.7 |
| 20260510095257 | 41 | 150 | 1.7 | 1.7 | 0.00 | 0.00 | 0.00 | 76 | 1019.6 |
| 20260510094756 | 41 | 296 | 0.9 | 1.7 | 0.00 | 0.00 | 0.00 | 75 | 1019.6 |
| 20260510094252 | 41 | 116 | 0.0 | 0.0 | 0.00 | 0.00 | 0.00 | 73 | 1019.4 |
| 20260510093748 | 42 | 119 | 1.7 | 1.7 | 0.00 | 0.00 | 0.00 | 72 | 1019.5 |
| 20260510093245 | 42 | 171 | 1.7 | 1.7 | 0.00 | 0.00 | 0.00 | 71 | 1019.3 |
| 20260510092741 | 42 | 159 | 1.7 | 1.7 | 0.00 | 0.00 | 0.00 | 71 | 1019.3 |
| 20260510092237 | 42 | 94 | 0.0 | 1.7 | 0.00 | 0.00 | 0.00 | 71 | 1019.1 |
| 20260510091733 | 42 | 105 | 1.7 | 1.7 | 0.00 | 0.00 | 0.00 | 71 | 1019.3 |
| 20260510091230 | 42 | 54 | 0.9 | 1.7 | 0.00 | 0.00 | 0.00 | 70 | 1019.1 |
| 20260510090726 | 42 | 126 | 2.6 | 2.6 | 0.00 | 0.00 | 0.00 | 70 | 1019.2 |
| 20260510090224 | 42 | 88 | 0.9 | 1.7 | 0.00 | 0.00 | 0.00 | 70 | 1019.1 |
| 20260510085719 | 42 | 349 | 2.6 | 4.3 | 0.00 | 0.00 | 0.00 | 70 | 1019.1 |
| 20260510085214 | 42 | 67 | 1.7 | 2.6 | 0.00 | 0.00 | 0.00 | 70 | 1019.2 |
| 20260510084710 | 42 | 91 | 0.0 | 0.0 | 0.00 | 0.00 | 0.00 | 71 | 1019.1 |
| 20260510084207 | 42 | 90 | 1.7 | 2.6 | 0.00 | 0.00 | 0.00 | 71 | 1019.3 |
| 20260510083704 | 42 | 336 | 3.5 | 5.2 | 0.00 | 0.00 | 0.00 | 72 | 1019.1 |
| 20260510083201 | 42 | 53 | 2.6 | 2.6 | 0.00 | 0.00 | 0.00 | 73 | 1018.7 |
| 20260510082656 | 41 | 146 | 2.6 | 4.3 | 0.00 | 0.00 | 0.00 | 73 | 1018.6 |
| 20260510082152 | 41 | 198 | 0.9 | 2.6 | 0.00 | 0.00 | 0.00 | 74 | 1018.7 |
| 20260510081647 | 41 | 234 | 2.6 | 2.6 | 0.00 | 0.00 | 0.00 | 74 | 1018.5 |
| 20260510081143 | 40 | 253 | 2.6 | 2.6 | 0.00 | 0.00 | 0.00 | 76 | 1018.4 |
| 20260510080643 | 39 | 244 | 1.7 | 2.6 | 0.00 | 0.00 | 0.00 | 83 | 1018.4 |
| 20260510080140 | 39 | 9 | 1.7 | 1.7 | 0.00 | 0.00 | 0.00 | 84 | 1018.3 |
| 20260510075637 | 39 | 96 | 0.0 | 0.0 | 0.00 | 0.00 | 0.00 | 85 | 1018.2 |
| 20260510075134 | 39 | 131 | 0.0 | 0.0 | 0.00 | 0.00 | 0.00 | 85 | 1018.2 |
| 20260510074631 | 39 | 120 | 0.0 | 0.0 | 0.00 | 0.00 | 0.00 | 84 | 1018.3 |
| 20260510074126 | 39 | 131 | 0.0 | 0.0 | 0.00 | 0.00 | 0.00 | 84 | 1018.5 |
| 20260510073623 | 38 | 106 | 0.0 | 0.0 | 0.00 | 0.00 | 0.00 | 84 | 1018.2 |
| 20260510073120 | 38 | 113 | 0.0 | 0.0 | 0.00 | 0.00 | 0.00 | 85 | 1018.2 |
| 20260510072616 | 37 | 104 | 0.0 | 0.0 | 0.00 | 0.00 | 0.00 | 86 | 1018.2 |
| 20260510072113 | 37 | 105 | 0.0 | 0.0 | 0.00 | 0.00 | 0.00 | 86 | 1018.2 |
| 20260510071608 | 37 | 121 | 0.0 | 0.0 | 0.00 | 0.00 | 0.00 | 85 | 1018.3 |
| 20260510071107 | 37 | 119 | 0.0 | 0.0 | 0.00 | 0.00 | 0.00 | 85 | 1017.8 |
| 20260510070603 | 37 | 122 | 0.0 | 0.0 | 0.00 | 0.00 | 0.00 | 85 | 1017.8 |
| 20260510065557 | 37 | 114 | 0.0 | 0.0 | 0.00 | 0.00 | 0.00 | 85 | 1018.0 |
| 20260510065053 | 37 | 123 | 0.0 | 0.0 | 0.00 | 0.00 | 0.00 | 85 | 1018.0 |
| 20260510064549 | 37 | 120 | 0.0 | 0.0 | 0.00 | 0.00 | 0.00 | 85 | 1018.1 |
| 20260510064046 | 37 | 117 | 0.0 | 0.0 | 0.00 | 0.00 | 0.00 | 86 | 1017.9 |
| 20260510063543 | 37 | 109 | 0.0 | 0.0 | 0.00 | 0.00 | 0.00 | 85 | 1018.1 |
| 20260510063040 | 37 | 104 | 0.0 | 0.0 | 0.00 | 0.00 | 0.00 | 84 | 1018.1 |
| 20260510062536 | 37 | 110 | 0.0 | 0.0 | 0.00 | 0.00 | 0.00 | 85 | 1018.2 |
| 20260510062031 | 37 | 105 | 0.0 | 0.0 | 0.00 | 0.00 | 0.00 | 85 | 1017.9 |
| 20260510061528 | 37 | 106 | 0.0 | 0.0 | 0.00 | 0.00 | 0.00 | 84 | 1018.1 |
| 20260510061025 | 38 | 108 | 0.0 | 0.0 | 0.00 | 0.00 | 0.00 | 84 | 1017.8 |
| 20260510060521 | 37 | 112 | 0.0 | 0.0 | 0.00 | 0.00 | 0.00 | 83 | 1017.8 |
| 20260510060017 | 38 | 98 | 0.0 | 0.0 | 0.00 | 0.00 | 0.00 | 81 | 1017.8 |
| 20260510055514 | 38 | 100 | 0.0 | 0.0 | 0.00 | 0.00 | 0.00 | 81 | 1017.9 |
| 20260510055012 | 38 | 116 | 0.0 | 0.0 | 0.00 | 0.00 | 0.00 | 80 | 1017.8 |
| 20260510054507 | 38 | 122 | 0.0 | 0.0 | 0.00 | 0.00 | 0.00 | 80 | 1017.9 |
| 20260510054003 | 38 | 103 | 0.0 | 0.0 | 0.00 | 0.00 | 0.00 | 80 | 1018.0 |
| 20260510053457 | 39 | 109 | 0.0 | 0.0 | 0.00 | 0.00 | 0.00 | 81 | 1017.6 |
| 20260510052954 | 39 | 108 | 0.0 | 0.0 | 0.00 | 0.00 | 0.00 | 81 | 1017.6 |
| 20260510052450 | 39 | 117 | 0.0 | 0.0 | 0.00 | 0.00 | 0.00 | 82 | 1017.8 |
| 20260510051946 | 39 | 106 | 0.0 | 0.0 | 0.00 | 0.00 | 0.00 | 81 | 1017.4 |
| 20260510051442 | 39 | 106 | 0.0 | 0.0 | 0.00 | 0.00 | 0.00 | 80 | 1017.6 |
| 20260510050939 | 40 | 112 | 0.0 | 0.0 | 0.00 | 0.00 | 0.00 | 79 | 1017.5 |
| 20260510050436 | 40 | 129 | 0.0 | 0.0 | 0.00 | 0.00 | 0.00 | 78 | 1017.4 |
| 20260510045933 | 39 | 121 | 0.0 | 0.0 | 0.00 | 0.22 | 0.22 | 79 | 1017.5 |
| 20260510045430 | 39 | 105 | 0.0 | 0.0 | 0.00 | 0.22 | 0.22 | 80 | 1017.3 |
| 20260510044927 | 39 | 101 | 0.0 | 0.0 | 0.00 | 0.22 | 0.22 | 79 | 1017.2 |
| 20260510044424 | 39 | 100 | 0.0 | 0.0 | 0.00 | 0.22 | 0.22 | 77 | 1017.5 |
| 20260510043921 | 40 | 98 | 0.0 | 0.0 | 0.00 | 0.22 | 0.22 | 76 | 1017.4 |
| 20260510043417 | 41 | 101 | 0.0 | 0.0 | 0.00 | 0.22 | 0.22 | 76 | 1017.3 |
| 20260510042915 | 42 | 110 | 0.0 | 0.0 | 0.00 | 0.22 | 0.22 | 75 | 1017.3 |
| 20260510042411 | 42 | 114 | 0.0 | 0.0 | 0.00 | 0.22 | 0.22 | 73 | 1017.3 |
| 20260510041906 | 42 | 101 | 0.0 | 0.0 | 0.00 | 0.22 | 0.22 | 71 | 1017.3 |
| 20260510041404 | 42 | 109 | 0.0 | 0.0 | 0.00 | 0.22 | 0.22 | 70 | 1017.3 |
| 20260510040901 | 42 | 106 | 0.0 | 0.0 | 0.00 | 0.22 | 0.22 | 69 | 1017.4 |
| 20260510040358 | 43 | 101 | 0.0 | 0.0 | 0.00 | 0.22 | 0.22 | 66 | 1017.2 |
| 20260510035854 | 44 | 105 | 0.0 | 0.0 | 0.00 | 0.22 | 0.22 | 65 | 1017.0 |
| 20260510035350 | 45 | 125 | 0.0 | 0.0 | 0.00 | 0.22 | 0.22 | 64 | 1017.0 |
| 20260510034845 | 45 | 123 | 0.0 | 0.0 | 0.00 | 0.22 | 0.22 | 62 | 1017.0 |
| 20260510034343 | 46 | 101 | 0.0 | 0.0 | 0.00 | 0.22 | 0.22 | 60 | 1016.9 |
| 20260510033839 | 47 | 101 | 0.0 | 0.0 | 0.00 | 0.22 | 0.22 | 55 | 1017.0 |
| 20260510033336 | 48 | 95 | 0.0 | 0.0 | 0.00 | 0.22 | 0.22 | 53 | 1016.9 |
| 20260510032833 | 48 | 9 | 1.7 | 1.7 | 0.00 | 0.22 | 0.22 | 51 | 1017.0 |
| 20260510032330 | 49 | 78 | 0.0 | 0.0 | 0.00 | 0.22 | 0.22 | 50 | 1017.0 |
| 20260510031825 | 49 | 333 | 2.6 | 2.6 | 0.00 | 0.22 | 0.22 | 49 | 1016.8 |
| 20260510031321 | 49 | 78 | 0.0 | 0.0 | 0.00 | 0.22 | 0.22 | 50 | 1016.8 |
| 20260510030815 | 50 | 315 | 1.7 | 4.3 | 0.00 | 0.22 | 0.22 | 49 | 1016.7 |
| 20260510030312 | 50 | 332 | 3.5 | 4.3 | 0.00 | 0.22 | 0.22 | 48 | 1016.7 |
| 20260510025809 | 50 | 113 | 3.5 | 4.3 | 0.00 | 0.22 | 0.22 | 48 | 1016.7 |
| 20260510025307 | 50 | 101 | 0.9 | 1.7 | 0.00 | 0.22 | 0.22 | 49 | 1016.4 |
| 20260510024804 | 50 | 86 | 1.7 | 2.6 | 0.00 | 0.22 | 0.22 | 48 | 1016.6 |
| 20260510024300 | 50 | 26 | 1.7 | 2.6 | 0.00 | 0.22 | 0.22 | 48 | 1016.4 |
| 20260510023756 | 50 | 46 | 1.7 | 1.7 | 0.00 | 0.22 | 0.22 | 48 | 1016.1 |
| 20260510023253 | 51 | 47 | 1.7 | 2.6 | 0.00 | 0.22 | 0.22 | 47 | 1016.2 |
| 20260510022750 | 51 | 353 | 4.3 | 4.3 | 0.00 | 0.22 | 0.22 | 47 | 1015.9 |
| 20260510022250 | 51 | 20 | 0.9 | 2.6 | 0.00 | 0.22 | 0.22 | 47 | 1015.8 |
| 20260510021749 | 52 | 70 | 0.0 | 0.0 | 0.00 | 0.22 | 0.22 | 46 | 1016.0 |
| 20260510021247 | 52 | 317 | 4.3 | 5.2 | 0.00 | 0.22 | 0.22 | 45 | 1015.6 |
| 20260510020743 | 52 | 337 | 2.6 | 2.6 | 0.00 | 0.22 | 0.22 | 45 | 1015.4 |
| 20260510020242 | 53 | 346 | 3.5 | 4.3 | 0.00 | 0.22 | 0.22 | 44 | 1015.3 |
| 20260510015739 | 53 | 251 | 5.2 | 5.2 | 0.00 | 0.22 | 0.22 | 43 | 1015.1 |
| 20260510015236 | 53 | 37 | 5.2 | 7.0 | 0.00 | 0.22 | 0.22 | 42 | 1015.2 |
| 20260510014730 | 53 | 323 | 7.0 | 7.8 | 0.00 | 0.22 | 0.22 | 42 | 1015.1 |
| 20260510014228 | 53 | 86 | 4.3 | 5.2 | 0.00 | 0.22 | 0.22 | 43 | 1015.0 |
| 20260510013724 | 53 | 280 | 6.1 | 7.8 | 0.00 | 0.22 | 0.22 | 42 | 1014.9 |
| 20260510013219 | 53 | 49 | 4.3 | 5.2 | 0.00 | 0.22 | 0.22 | 42 | 1014.8 |
| 20260510012719 | 53 | 235 | 4.3 | 5.2 | 0.00 | 0.22 | 0.22 | 42 | 1014.7 |
| 20260510012214 | 54 | 329 | 5.2 | 7.8 | 0.00 | 0.22 | 0.22 | 41 | 1014.5 |
| 20260510011709 | 54 | 333 | 3.5 | 4.3 | 0.00 | 0.22 | 0.22 | 41 | 1014.6 |
| 20260510011205 | 54 | 317 | 4.3 | 5.2 | 0.00 | 0.22 | 0.22 | 40 | 1014.5 |
| 20260510010702 | 54 | 292 | 3.5 | 7.0 | 0.00 | 0.22 | 0.22 | 40 | 1014.4 |
| 20260510010158 | 54 | 256 | 6.1 | 7.8 | 0.00 | 0.22 | 0.22 | 39 | 1014.4 |
| 20260510005655 | 54 | 352 | 4.3 | 7.8 | 0.00 | 0.22 | 0.22 | 39 | 1014.0 |
| 20260510005151 | 55 | 31 | 6.1 | 7.0 | 0.00 | 0.22 | 0.22 | 39 | 1014.2 |
| 20260510004650 | 55 | 330 | 4.3 | 4.3 | 0.00 | 0.22 | 0.22 | 39 | 1013.8 |
| 20260510004148 | 55 | 329 | 9.6 | 12.2 | 0.00 | 0.22 | 0.22 | 38 | 1014.1 |
| 20260510003645 | 55 | 318 | 6.1 | 7.0 | 0.00 | 0.22 | 0.22 | 38 | 1014.0 |
| 20260510003140 | 56 | 12 | 4.3 | 5.2 | 0.00 | 0.22 | 0.22 | 38 | 1014.0 |
| 20260510002635 | 56 | 323 | 7.0 | 9.6 | 0.00 | 0.22 | 0.22 | 36 | 1013.5 |
| 20260510002132 | 55 | 318 | 8.7 | 10.4 | 0.00 | 0.22 | 0.22 | 37 | 1013.5 |
| 20260510001629 | 56 | 291 | 13.9 | 17.4 | 0.00 | 0.22 | 0.22 | 36 | 1013.6 |
| 20260510001128 | 56 | 301 | 4.3 | 5.2 | 0.00 | 0.22 | 0.22 | 37 | 1013.6 |
| 20260510000627 | 56 | 311 | 7.8 | 9.6 | 0.00 | 0.22 | 0.22 | 36 | 1013.5 |
| 20260510000126 | 57 | 23 | 9.6 | 10.4 | 0.00 | 0.22 | 0.22 | 36 | 1013.2 |
| 20260509235621 | 57 | 291 | 8.7 | 10.4 | 0.00 | 0.22 | 0.22 | 35 | 1013.2 |
| 20260509235118 | 57 | 273 | 8.7 | 13.0 | 0.00 | 0.22 | 0.22 | 35 | 1013.2 |
| 20260509234614 | 57 | 10 | 9.6 | 10.4 | 0.00 | 0.22 | 0.22 | 35 | 1013.4 |
| 20260509234112 | 57 | 348 | 11.3 | 16.5 | 0.00 | 0.22 | 0.22 | 35 | 1013.2 |
| 20260509233610 | 57 | 21 | 7.8 | 10.4 | 0.00 | 0.22 | 0.22 | 36 | 1012.9 |
| 20260509233107 | 57 | 351 | 5.2 | 5.2 | 0.00 | 0.22 | 0.22 | 36 | 1013.1 |
| 20260509232603 | 58 | 330 | 6.1 | 9.6 | 0.00 | 0.22 | 0.22 | 36 | 1013.1 |
| 20260509232100 | 57 | 70 | 4.3 | 7.0 | 0.00 | 0.22 | 0.22 | 36 | 1013.1 |
| 20260509231556 | 57 | 316 | 11.3 | 13.0 | 0.00 | 0.22 | 0.22 | 35 | 1012.8 |
| 20260509231054 | 57 | 288 | 10.4 | 13.0 | 0.00 | 0.22 | 0.22 | 34 | 1013.0 |
| 20260509230551 | 58 | 326 | 9.6 | 12.2 | 0.00 | 0.22 | 0.22 | 36 | 1012.9 |
| 20260509230048 | 57 | 317 | 2.6 | 4.3 | 0.00 | 0.22 | 0.22 | 36 | 1012.6 |
| 20260509225549 | 57 | 338 | 9.6 | 10.4 | 0.00 | 0.22 | 0.22 | 36 | 1012.7 |
| 20260509225044 | 57 | 356 | 13.9 | 16.5 | 0.00 | 0.22 | 0.22 | 34 | 1012.8 |
| 20260509224540 | 57 | 21 | 6.1 | 7.8 | 0.00 | 0.22 | 0.22 | 36 | 1013.0 |
| 20260509224037 | 58 | 278 | 8.7 | 12.2 | 0.00 | 0.22 | 0.22 | 36 | 1012.8 |
| 20260509223534 | 58 | 328 | 7.8 | 13.0 | 0.00 | 0.22 | 0.22 | 36 | 1012.7 |
| 20260509223032 | 58 | 324 | 8.7 | 10.4 | 0.00 | 0.22 | 0.22 | 36 | 1012.6 |
| 20260509222528 | 57 | 357 | 4.3 | 7.0 | 0.00 | 0.22 | 0.22 | 38 | 1012.8 |
| 20260509222023 | 58 | 336 | 12.2 | 16.5 | 0.00 | 0.22 | 0.22 | 37 | 1012.4 |
| 20260509221520 | 57 | 321 | 9.6 | 12.2 | 0.00 | 0.22 | 0.22 | 36 | 1012.6 |
| 20260509221016 | 58 | 345 | 9.6 | 13.0 | 0.00 | 0.22 | 0.22 | 36 | 1012.7 |
| 20260509220512 | 58 | 29 | 7.0 | 12.2 | 0.00 | 0.22 | 0.22 | 37 | 1012.5 |
| 20260509220008 | 57 | 26 | 7.8 | 7.8 | 0.00 | 0.22 | 0.22 | 37 | 1012.3 |
| 20260509215503 | 57 | 310 | 12.2 | 16.5 | 0.00 | 0.22 | 0.22 | 36 | 1012.3 |
| 20260509215001 | 58 | 1 | 10.4 | 16.5 | 0.00 | 0.22 | 0.22 | 35 | 1012.3 |
| 20260509214458 | 57 | 327 | 8.7 | 12.2 | 0.00 | 0.22 | 0.22 | 35 | 1012.4 |